Bramford, United Kingdom
Current Conditions -  °F | °C
As of 5:50 AM on Monday 20 Oct 2014 (Local Time) from EGUW Reporting Station
Clear Clear  
Wind Chill: 50°   Ceiling: Unl
Heat Index: 50°   Visibility: 6mi
Dew Point: 50°   Wind: 9mph
Humidity: 100%   Direction: 230°SW
Pressure: 29.97"   Gusts: NA
Location:  52.08°N, 1.1°E
Report Text: EGUW 200450Z 23008KT CAVOK 10/10 Q1015 BLU
Loading
Personal Weather Stations






























Interactive Weather Map
Tropical Storm Tracking
New forecast layout! Learn more

10-Day Weather Forecast

Advertisements
Track Severe Weather on mobile